createdAt,value
2018-06-03T00:00:54.217Z,37.73
2018-06-03T00:02:58.046Z,41.70
2018-06-03T00:05:02.047Z,36.77
2018-06-03T00:07:05.989Z,40.00
2018-06-03T00:09:10.065Z,43.10
2018-06-03T00:11:14.194Z,29.10
2018-06-03T00:13:17.929Z,39.53
2018-06-03T00:15:21.865Z,36.87
2018-06-03T00:17:25.589Z,36.00
2018-06-03T00:19:29.324Z,36.17
2018-06-03T00:21:42.769Z,36.37
2018-06-03T00:23:46.522Z,35.77
2018-06-03T00:25:50.606Z,39.87
2018-06-03T00:27:54.805Z,33.47
2018-06-03T00:29:59.710Z,34.50
2018-06-03T00:32:04.173Z,35.93
2018-06-03T00:34:08.176Z,35.90
2018-06-03T00:36:47.566Z,38.40
2018-06-03T00:38:51.847Z,36.37
2018-06-03T00:40:56.101Z,40.57
2018-06-03T00:43:00.385Z,39.10
2018-06-03T00:45:05.651Z,39.90
2018-06-03T00:47:09.931Z,35.50
2018-06-03T00:49:14.198Z,38.50
2018-06-03T00:51:18.478Z,37.00
2018-06-03T00:53:22.743Z,37.30
2018-06-03T00:55:27.018Z,39.00
2018-06-03T00:57:31.301Z,36.50
2018-06-03T00:59:35.563Z,37.30
2018-06-03T01:01:40.026Z,37.97
2018-06-03T01:03:44.026Z,32.07
2018-06-03T01:05:48.288Z,37.23
2018-06-03T01:07:52.634Z,37.03
2018-06-03T01:09:57.102Z,39.13
2018-06-03T01:12:01.370Z,36.97
2018-06-03T01:14:10.128Z,32.50
2018-06-03T01:16:14.375Z,40.27
2018-06-03T01:18:18.656Z,37.27
2018-06-03T01:20:22.649Z,35.93
2018-06-03T01:22:26.738Z,33.77
2018-06-03T01:24:31.040Z,35.80
2018-06-03T01:26:35.314Z,35.37
2018-06-03T01:28:39.601Z,31.73
2018-06-03T01:30:43.887Z,21.30
2018-06-03T01:32:48.147Z,30.43
2018-06-03T01:34:52.414Z,31.90
2018-06-03T01:36:56.730Z,18.00
2018-06-03T01:39:00.993Z,27.87
2018-06-03T01:41:05.674Z,33.27
2018-06-03T01:43:09.982Z,31.27
2018-06-03T01:45:14.249Z,31.60
2018-06-03T01:47:18.363Z,31.87
2018-06-03T01:49:22.578Z,31.57
2018-06-03T01:51:26.894Z,29.37
2018-06-03T01:53:31.205Z,33.20
2018-06-03T01:55:35.438Z,26.57
2018-06-03T01:57:39.682Z,28.33
2018-06-03T01:59:44.042Z,30.27
2018-06-03T02:01:48.258Z,29.50
2018-06-03T02:03:52.519Z,27.43
2018-06-03T02:05:56.881Z,27.77
2018-06-03T02:08:01.114Z,31.43
2018-06-03T02:10:05.417Z,32.47
2018-06-03T02:12:09.724Z,32.23
2018-06-03T02:14:14.899Z,30.97
2018-06-03T02:16:19.170Z,31.03
2018-06-03T02:18:23.513Z,31.80
2018-06-03T02:20:27.944Z,32.23
2018-06-03T02:22:32.663Z,30.80
2018-06-03T02:24:36.962Z,30.87
2018-06-03T02:26:41.258Z,33.60
2018-06-03T02:28:45.558Z,35.40
2018-06-03T02:30:49.827Z,35.73
2018-06-03T02:32:54.078Z,34.57
2018-06-03T02:34:58.547Z,32.23
2018-06-03T02:37:02.826Z,32.60
2018-06-03T02:39:06.987Z,32.40
2018-06-03T02:41:11.290Z,34.73
2018-06-03T02:43:15.562Z,31.10
2018-06-03T02:45:19.869Z,29.70
2018-06-03T02:47:24.210Z,33.10
2018-06-03T02:49:28.511Z,32.37
2018-06-03T02:51:32.741Z,31.73
2018-06-03T02:53:37.066Z,34.83
2018-06-03T02:55:41.322Z,32.47
2018-06-03T02:57:45.581Z,27.47
2018-06-03T02:59:49.838Z,31.70
2018-06-03T03:02:03.530Z,26.67
2018-06-03T03:04:07.794Z,36.77
2018-06-03T03:06:12.143Z,34.23
2018-06-03T03:08:16.438Z,35.80
2018-06-03T03:10:20.753Z,33.27
2018-06-03T03:12:25.215Z,35.00
2018-06-03T03:14:29.497Z,37.40
2018-06-03T03:16:33.496Z,32.60
2018-06-03T03:18:37.890Z,27.73
2018-06-03T03:20:42.248Z,31.50
2018-06-03T03:22:46.518Z,35.80
2018-06-03T03:24:50.871Z,33.63
2018-06-03T03:26:55.165Z,30.70
2018-06-03T03:28:59.457Z,36.43
2018-06-03T03:31:03.729Z,32.50
2018-06-03T03:33:08.012Z,36.77
2018-06-03T03:35:12.278Z,35.77
2018-06-03T03:37:16.536Z,34.97
2018-06-03T03:39:20.809Z,36.00
2018-06-03T03:41:25.078Z,35.40
2018-06-03T03:43:29.373Z,37.47
2018-06-03T03:45:33.647Z,34.77
2018-06-03T03:47:38.228Z,34.67
2018-06-03T03:49:42.513Z,31.27
2018-06-03T03:51:46.764Z,34.87
2018-06-03T03:53:51.078Z,36.03
2018-06-03T03:55:55.351Z,35.03
2018-06-03T03:57:59.681Z,34.40
2018-06-03T04:00:03.962Z,39.20
2018-06-03T04:02:08.250Z,37.70
2018-06-03T04:04:12.712Z,29.50
2018-06-03T04:06:17.000Z,36.87
2018-06-03T04:08:21.262Z,38.50
2018-06-03T04:10:25.517Z,38.07
2018-06-03T04:12:29.802Z,33.40
2018-06-03T04:14:34.079Z,36.00
2018-06-03T04:16:38.691Z,35.90
2018-06-03T04:18:42.996Z,36.87
2018-06-03T04:20:47.274Z,36.87
2018-06-03T04:22:51.546Z,34.40
2018-06-03T04:24:55.848Z,34.87
2018-06-03T04:27:00.192Z,34.50
2018-06-03T04:29:04.507Z,38.17
2018-06-03T04:31:08.835Z,37.60
2018-06-03T04:33:13.082Z,30.30
2018-06-03T04:35:17.370Z,34.67
2018-06-03T04:37:21.387Z,32.70
2018-06-03T04:39:25.719Z,32.30
2018-06-03T04:41:29.974Z,28.33
2018-06-03T04:43:34.244Z,33.67
2018-06-03T04:45:38.502Z,31.57
2018-06-03T04:47:42.771Z,36.53
2018-06-03T04:49:47.242Z,33.83
2018-06-03T04:51:51.516Z,31.50
2018-06-03T04:53:55.776Z,28.87
2018-06-03T04:55:59.868Z,29.20
2018-06-03T04:58:04.156Z,28.97
2018-06-03T05:00:08.386Z,28.07
2018-06-03T05:02:12.681Z,28.77
2018-06-03T05:04:16.793Z,31.20
2018-06-03T05:06:20.886Z,33.87
2018-06-03T05:08:25.231Z,33.73
2018-06-03T05:10:29.482Z,33.17
2018-06-03T05:12:33.978Z,34.43
2018-06-03T05:14:37.969Z,30.00
2018-06-03T05:16:42.239Z,31.70
2018-06-03T05:18:46.532Z,29.07
2018-06-03T05:20:50.799Z,32.20
2018-06-03T05:22:55.110Z,31.27
2018-06-03T05:24:59.394Z,32.40
2018-06-03T05:27:03.715Z,33.53
2018-06-03T05:29:08.239Z,28.47
2018-06-03T05:31:12.656Z,31.40
2018-06-03T05:33:16.983Z,31.80
2018-06-03T05:35:21.294Z,31.30
2018-06-03T05:37:25.654Z,25.87
2018-06-03T05:39:29.928Z,28.13
2018-06-03T05:41:34.232Z,16.43
2018-06-03T05:43:38.489Z,22.53
2018-06-03T05:45:42.770Z,26.00
2018-06-03T05:47:47.075Z,21.90
2018-06-03T05:49:51.357Z,23.87
2018-06-03T05:51:55.943Z,22.37
2018-06-03T05:54:00.634Z,22.00
2018-06-03T05:56:05.206Z,23.53
2018-06-03T05:58:09.706Z,20.43
2018-06-03T06:00:13.989Z,19.23
2018-06-03T06:02:18.263Z,22.23
2018-06-03T06:04:22.557Z,19.07
2018-06-03T06:06:26.838Z,21.37
2018-06-03T06:08:31.390Z,22.60
2018-06-03T06:10:35.694Z,18.30
2018-06-03T06:12:39.987Z,14.30
2018-06-03T06:14:44.582Z,21.60
2018-06-03T06:16:49.194Z,19.20
2018-06-03T06:18:53.558Z,23.90
2018-06-03T06:20:57.819Z,23.23
2018-06-03T06:23:02.088Z,24.43
2018-06-03T06:25:06.659Z,25.57
2018-06-03T06:27:10.667Z,21.33
2018-06-03T06:29:15.346Z,22.90
2018-06-03T06:31:19.358Z,21.00
2018-06-03T06:33:23.550Z,21.00
2018-06-03T06:35:28.059Z,24.03
2018-06-03T06:37:32.530Z,23.17
2018-06-03T06:39:36.835Z,22.07
2018-06-03T06:41:41.173Z,21.37
2018-06-03T06:43:45.603Z,18.90
2018-06-03T06:45:49.942Z,20.57
2018-06-03T06:47:54.265Z,21.07
2018-06-03T06:49:58.365Z,21.80
2018-06-03T06:52:03.633Z,20.47
2018-06-03T06:54:07.914Z,21.00
2018-06-03T06:56:11.887Z,22.97
2018-06-03T06:58:16.190Z,22.77
2018-06-03T07:00:20.212Z,20.40
2018-06-03T07:02:24.191Z,19.17
2018-06-03T07:04:28.663Z,13.90
2018-06-03T07:06:33.167Z,18.17
2018-06-03T07:08:37.625Z,14.27
2018-06-03T07:10:41.829Z,20.77
2018-06-03T07:12:45.728Z,16.70
2018-06-03T07:14:50.220Z,18.93
2018-06-03T07:16:54.770Z,20.00
2018-06-03T07:18:59.046Z,18.90
2018-06-03T07:21:03.591Z,20.43
2018-06-03T07:23:07.582Z,18.67
2018-06-03T07:25:11.858Z,17.87
2018-06-03T07:27:16.161Z,17.20
2018-06-03T07:29:20.517Z,17.70
2018-06-03T07:31:24.740Z,15.90
2018-06-03T07:33:29.415Z,20.47
2018-06-03T07:35:33.766Z,17.10
2018-06-03T07:37:38.098Z,18.83
2018-06-03T07:39:42.732Z,14.80
2018-06-03T07:41:47.024Z,14.80
2018-06-03T07:43:51.596Z,17.20
2018-06-03T07:45:55.875Z,18.00
2018-06-03T07:48:00.267Z,15.60
2018-06-03T07:50:04.844Z,17.90
2018-06-03T07:52:09.458Z,11.93
2018-06-03T07:54:13.715Z,17.60
2018-06-03T07:56:18.717Z,17.10
2018-06-03T07:58:22.986Z,16.70
2018-06-03T08:00:27.262Z,16.53
2018-06-03T08:02:31.526Z,17.00
2018-06-03T08:04:35.548Z,17.03
2018-06-03T08:06:39.456Z,16.07
2018-06-03T08:08:43.730Z,18.50
2018-06-03T08:10:48.198Z,15.00
2018-06-03T08:12:52.562Z,14.00
2018-06-03T08:14:56.855Z,17.27
2018-06-03T08:17:01.140Z,15.60
2018-06-03T08:19:06.027Z,15.77
2018-06-03T08:21:10.303Z,12.80
2018-06-03T08:23:14.562Z,13.67
2018-06-03T08:25:18.854Z,14.00
2018-06-03T08:27:23.144Z,15.47
2018-06-03T08:29:27.122Z,13.47
2018-06-03T08:31:31.402Z,16.10
2018-06-03T08:33:35.894Z,13.00
2018-06-03T08:35:40.172Z,14.20
2018-06-03T08:37:44.488Z,14.07
2018-06-03T08:39:48.762Z,15.80
2018-06-03T08:41:52.778Z,14.93
2018-06-03T08:43:57.090Z,15.70
2018-06-03T08:46:01.106Z,15.43
2018-06-03T08:48:05.299Z,10.60
2018-06-03T08:50:09.560Z,15.47
2018-06-03T08:52:13.830Z,14.03
2018-06-03T08:54:17.978Z,11.23
2018-06-03T08:56:22.446Z,11.53
2018-06-03T08:58:26.686Z,14.73
2018-06-03T09:00:30.794Z,14.07
2018-06-03T09:02:35.098Z,14.73
2018-06-03T09:04:39.114Z,14.97
2018-06-03T09:06:43.269Z,12.53
2018-06-03T09:08:47.527Z,13.07
2018-06-03T09:10:51.998Z,13.93
2018-06-03T09:12:56.247Z,8.13
2018-06-03T09:15:00.562Z,14.97
2018-06-03T09:17:05.254Z,14.40
2018-06-03T09:19:09.506Z,13.93
2018-06-03T09:21:13.721Z,13.10
2018-06-03T09:23:17.944Z,14.80
2018-06-03T09:25:22.882Z,12.93
2018-06-03T09:27:26.870Z,13.30
2018-06-03T09:29:31.143Z,13.13
2018-06-03T09:31:35.406Z,12.70
2018-06-03T09:33:39.766Z,14.47
2018-06-03T09:35:44.007Z,14.80
2018-06-03T09:37:48.270Z,11.83
2018-06-03T09:39:52.579Z,12.50
2018-06-03T09:41:56.948Z,12.70
2018-06-03T09:44:01.387Z,10.30
2018-06-03T09:46:05.722Z,14.20
2018-06-03T09:48:10.022Z,11.20
2018-06-03T09:50:14.306Z,13.93
2018-06-03T09:52:18.569Z,14.20
2018-06-03T09:54:22.891Z,12.13
2018-06-03T09:56:27.174Z,11.83
2018-06-03T09:58:31.439Z,11.40
2018-06-03T10:00:35.739Z,9.57
2018-06-03T10:02:40.189Z,15.07
2018-06-03T10:04:44.210Z,11.97
2018-06-03T10:06:48.374Z,15.87
2018-06-03T10:08:52.658Z,13.37
2018-06-03T10:10:56.719Z,15.50
2018-06-03T10:13:01.019Z,13.50
2018-06-03T10:15:05.639Z,12.60
2018-06-03T10:17:09.619Z,13.60
2018-06-03T10:19:13.875Z,13.83
2018-06-03T10:21:18.190Z,9.13
2018-06-03T10:23:22.486Z,12.03
2018-06-03T10:25:26.803Z,13.20
2018-06-03T10:27:31.103Z,9.67
2018-06-03T10:29:35.550Z,13.60
2018-06-03T10:31:39.818Z,12.30
2018-06-03T10:33:44.116Z,13.20
2018-06-03T10:35:48.383Z,11.50
2018-06-03T10:37:52.254Z,14.83
2018-06-03T10:39:56.575Z,12.60
2018-06-03T10:42:01.306Z,13.90
2018-06-03T10:44:05.959Z,11.83
2018-06-03T10:46:10.266Z,10.27
2018-06-03T10:48:14.650Z,10.20
2018-06-03T10:50:18.876Z,10.40
2018-06-03T10:52:23.131Z,9.40
2018-06-03T10:54:27.733Z,9.87
2018-06-03T10:56:32.242Z,11.60
2018-06-03T10:58:36.559Z,9.70
2018-06-03T11:00:40.842Z,10.83
2018-06-03T11:02:45.103Z,10.60
2018-06-03T11:04:49.373Z,11.50
2018-06-03T11:06:53.642Z,8.90
2018-06-03T11:08:57.896Z,9.40
2018-06-03T11:11:02.201Z,8.23
2018-06-03T11:13:06.475Z,9.57
2018-06-03T11:15:10.493Z,8.97
2018-06-03T11:17:14.753Z,9.40
2018-06-03T11:19:19.019Z,8.60
2018-06-03T11:21:23.285Z,10.00
2018-06-03T11:23:27.583Z,10.07
2018-06-03T11:25:31.847Z,9.87
2018-06-03T11:27:36.146Z,11.20
2018-06-03T11:29:40.633Z,10.10
2018-06-03T11:31:44.951Z,10.30
2018-06-03T11:33:49.490Z,8.53
2018-06-03T11:35:53.758Z,11.10
2018-06-03T11:37:57.747Z,11.10
2018-06-03T11:40:02.117Z,10.20
2018-06-03T11:42:06.746Z,12.30
2018-06-03T11:44:11.026Z,10.70
2018-06-03T11:46:15.558Z,9.87
2018-06-03T11:48:19.869Z,10.40
2018-06-03T11:50:24.376Z,10.03
2018-06-03T11:52:28.543Z,6.30
2018-06-03T11:54:32.969Z,10.10
2018-06-03T11:56:48.762Z,11.43
2018-06-03T11:58:53.103Z,8.90
2018-06-03T12:00:57.074Z,10.47
2018-06-03T12:03:01.422Z,9.47
2018-06-03T12:05:05.786Z,10.70
2018-06-03T12:07:10.075Z,12.00
2018-06-03T12:09:14.336Z,12.13
2018-06-03T12:11:18.596Z,9.87
2018-06-03T12:13:22.751Z,13.53
2018-06-03T12:15:27.233Z,12.73
2018-06-03T12:17:31.826Z,14.53
2018-06-03T12:19:36.120Z,12.77
2018-06-03T12:21:40.615Z,12.37
2018-06-03T12:23:44.886Z,13.80
2018-06-03T12:25:49.315Z,13.60
2018-06-03T13:30:35.097Z,9.97
2018-06-03T13:32:39.361Z,10.93
2018-06-03T13:34:43.625Z,10.30
2018-06-03T13:36:47.874Z,11.20
2018-06-03T13:38:52.137Z,10.37
2018-06-03T13:40:56.615Z,11.73
2018-06-03T13:43:00.872Z,11.03
2018-06-03T13:45:05.227Z,9.17
2018-06-03T13:47:09.406Z,5.40
2018-06-03T13:49:13.657Z,10.73
2018-06-03T13:51:17.934Z,11.20
2018-06-03T13:53:22.239Z,10.10
2018-06-03T13:55:26.494Z,10.53
2018-06-03T13:57:30.826Z,10.93
2018-06-03T13:59:35.161Z,11.90
2018-06-03T14:01:39.434Z,10.47
2018-06-03T14:03:43.490Z,11.60
2018-06-03T14:05:47.645Z,11.53
2018-06-03T14:07:51.915Z,12.63
2018-06-03T14:09:56.185Z,12.07
2018-06-03T14:12:00.522Z,11.63
2018-06-03T14:14:04.804Z,11.93
2018-06-03T14:16:09.123Z,10.87
2018-06-03T14:18:13.407Z,11.63
2018-06-03T14:20:17.702Z,11.40
2018-06-03T14:22:22.075Z,12.10
2018-06-03T14:24:26.074Z,11.57
2018-06-03T14:26:30.038Z,12.07
2018-06-03T14:28:34.055Z,11.50
2018-06-03T14:30:38.358Z,10.60
2018-06-03T14:32:42.359Z,11.03
2018-06-03T14:34:46.346Z,11.03
2018-06-03T14:36:50.670Z,11.53
2018-06-03T14:38:54.666Z,10.87
2018-06-03T14:40:58.670Z,10.07
2018-06-03T14:43:03.014Z,8.97
2018-06-03T14:45:07.278Z,10.40
2018-06-03T14:47:11.273Z,9.63
2018-06-03T14:49:15.341Z,9.93
2018-06-03T14:51:19.339Z,7.50
2018-06-03T14:53:23.638Z,6.30
2018-06-03T14:55:27.689Z,7.90
2018-06-03T14:57:31.687Z,9.73
2018-06-03T14:59:35.707Z,8.97
2018-06-03T15:01:39.967Z,7.20
2018-06-03T15:03:44.477Z,10.37
2018-06-03T15:05:49.295Z,8.10
2018-06-03T15:07:53.082Z,9.27
2018-06-03T15:09:56.966Z,7.70
2018-06-03T15:12:01.231Z,10.57
2018-06-03T15:14:05.495Z,8.07
2018-06-03T15:16:09.601Z,8.60
2018-06-03T15:18:14.046Z,11.43
2018-06-03T15:20:18.381Z,8.97
2018-06-03T15:22:22.867Z,10.70
2018-06-03T15:24:27.236Z,9.50
2018-06-03T15:26:31.342Z,10.20
2018-06-03T15:28:35.322Z,11.20
2018-06-03T15:30:39.646Z,12.43
2018-06-03T15:32:43.652Z,11.77
2018-06-03T15:34:47.919Z,13.07
2018-06-03T15:36:51.987Z,11.20
2018-06-03T15:38:56.250Z,13.33
2018-06-03T15:41:00.598Z,9.83
2018-06-03T15:43:04.598Z,11.40
2018-06-03T15:45:08.622Z,11.83
2018-06-03T15:47:12.590Z,12.37
2018-06-03T15:49:16.574Z,11.70
2018-06-03T15:51:21.245Z,11.10
2018-06-03T15:53:25.631Z,11.40
2018-06-03T15:55:29.609Z,13.60
2018-06-03T15:57:33.902Z,12.10
2018-06-03T15:59:38.226Z,12.87
2018-06-03T16:01:42.494Z,11.20
2018-06-03T16:03:46.894Z,12.07
2018-06-03T16:05:51.138Z,11.70
2018-06-03T16:07:56.266Z,11.33
2018-06-03T16:10:00.375Z,11.90
2018-06-03T16:12:04.391Z,12.03
2018-06-03T16:14:08.358Z,10.50
2018-06-03T16:16:12.434Z,9.67
2018-06-03T16:18:16.627Z,11.60
2018-06-03T16:20:20.947Z,11.63
2018-06-03T16:22:25.330Z,13.43
2018-06-03T16:24:29.282Z,13.43
2018-06-03T16:26:33.263Z,14.00
2018-06-03T16:28:37.282Z,12.47
2018-06-03T16:30:41.527Z,12.47
2018-06-03T16:32:45.694Z,15.40
2018-06-03T16:34:49.964Z,14.30
2018-06-03T16:36:54.239Z,10.50
2018-06-03T16:38:58.215Z,11.57
2018-06-03T16:41:02.231Z,13.23
2018-06-03T16:43:06.486Z,11.80
2018-06-03T16:45:10.956Z,13.00
2018-06-03T16:47:15.279Z,8.83
2018-06-03T16:49:19.630Z,9.07
2018-06-03T16:51:23.800Z,6.87
2018-06-03T16:53:28.514Z,9.50
2018-06-03T16:55:32.835Z,10.70
2018-06-03T16:57:36.860Z,10.60
2018-06-03T16:59:41.125Z,10.77
2018-06-03T17:01:45.168Z,9.10
2018-06-03T17:03:49.505Z,8.20
2018-06-03T17:05:53.229Z,8.83
2018-06-03T17:07:56.879Z,9.23
2018-06-03T17:10:00.743Z,8.00
2018-06-03T17:12:04.871Z,7.70
2018-06-03T17:14:09.128Z,6.43
2018-06-03T17:16:13.128Z,7.30
2018-06-03T17:18:17.350Z,7.63
2018-06-03T17:20:21.130Z,7.40
2018-06-03T17:22:25.155Z,8.33
2018-06-03T17:24:29.253Z,7.83
2018-06-03T17:26:33.206Z,6.47
2018-06-03T17:28:37.194Z,7.27
2018-06-03T17:30:41.215Z,8.53
2018-06-03T17:32:45.278Z,7.03
2018-06-03T17:34:49.917Z,7.90
2018-06-03T17:36:53.890Z,6.77
2018-06-03T17:38:57.885Z,5.90
2018-06-03T17:41:01.861Z,6.47
2018-06-03T17:43:05.830Z,6.70
2018-06-03T17:45:09.866Z,6.57
2018-06-03T17:47:13.887Z,6.77
2018-06-03T17:49:17.934Z,5.93
2018-06-03T17:51:21.818Z,6.03
2018-06-03T17:53:25.802Z,5.80
2018-06-03T17:55:29.847Z,6.10
2018-06-03T17:57:33.849Z,5.60
2018-06-03T17:59:37.878Z,6.17
2018-06-03T18:01:41.859Z,5.80
2018-06-03T18:03:45.907Z,5.50
2018-06-03T18:05:49.967Z,5.93
2018-06-03T18:07:54.071Z,5.60
2018-06-03T18:09:58.034Z,5.40
2018-06-03T18:12:01.751Z,5.30
2018-06-03T18:14:06.119Z,5.13
2018-06-03T18:16:10.047Z,4.97
2018-06-03T18:18:14.012Z,4.97
2018-06-03T18:20:18.292Z,5.20
2018-06-03T18:22:22.306Z,3.83
2018-06-03T18:24:26.310Z,5.03
2018-06-03T18:26:30.286Z,5.30
2018-06-03T18:28:34.276Z,4.67
2018-06-03T18:30:38.246Z,5.40
2018-06-03T18:32:42.211Z,5.73
2018-06-03T18:34:46.402Z,5.73
2018-06-03T18:36:50.482Z,4.80
2018-06-03T18:38:54.530Z,4.87
2018-06-03T18:40:58.535Z,4.67
2018-06-03T18:43:02.756Z,4.53
2018-06-03T18:45:06.727Z,5.40
2018-06-03T18:47:10.706Z,4.30
2018-06-03T18:49:14.694Z,4.10
2018-06-03T18:51:19.159Z,5.17
2018-06-03T18:53:23.205Z,4.60
2018-06-03T18:55:27.861Z,5.10
2018-06-03T18:57:32.133Z,4.93
2018-06-03T18:59:36.167Z,5.23
2018-06-03T19:01:40.170Z,5.07
2018-06-03T19:03:44.195Z,5.13
2018-06-03T19:05:48.481Z,5.67
2018-06-03T19:07:52.515Z,6.37
2018-06-03T19:09:56.545Z,4.97
2018-06-03T19:12:00.560Z,4.83
2018-06-03T19:14:05.584Z,4.87
2018-06-03T19:16:09.592Z,5.10
2018-06-03T19:18:13.619Z,4.80
2018-06-03T19:20:18.358Z,4.33
2018-06-03T19:22:22.356Z,4.60
2018-06-03T19:24:26.363Z,4.93
2018-06-03T19:26:31.012Z,5.40
2018-06-03T19:28:35.025Z,4.50
2018-06-03T19:30:39.000Z,5.17
2018-06-03T19:32:43.024Z,5.20
2018-06-03T19:34:47.101Z,5.37
2018-06-03T19:36:51.365Z,5.57
2018-06-03T19:38:55.337Z,5.57
2018-06-03T19:41:00.178Z,4.80
2018-06-03T19:43:04.188Z,6.00
2018-06-03T19:45:08.451Z,5.67
2018-06-03T19:47:12.491Z,5.73
2018-06-03T19:49:16.572Z,5.50
2018-06-03T19:51:20.551Z,5.77
2018-06-03T19:53:24.862Z,5.10
2018-06-03T19:55:28.893Z,4.67
2018-06-03T19:57:33.318Z,6.00
2018-06-03T19:59:37.583Z,5.87
2018-06-03T20:01:41.576Z,5.30
2018-06-03T20:03:45.653Z,5.70
2018-06-03T20:05:50.462Z,5.50
2018-06-03T20:07:54.434Z,5.87
2018-06-03T20:09:58.397Z,5.93
2018-06-03T20:12:02.523Z,6.87
2018-06-03T20:14:06.859Z,6.10
2018-06-03T20:16:10.932Z,6.00
2018-06-03T20:18:15.494Z,6.70
2018-06-03T20:20:20.250Z,6.20
2018-06-03T20:22:24.664Z,5.87
2018-06-03T20:24:28.942Z,6.13
2018-06-03T20:26:32.967Z,6.63
2018-06-03T20:28:36.946Z,6.60
2018-06-03T20:30:41.114Z,5.87
2018-06-03T20:32:44.863Z,6.00
2018-06-03T20:34:48.727Z,5.30
2018-06-03T20:36:52.813Z,6.37
2018-06-03T20:38:56.821Z,7.40
2018-06-03T20:41:01.072Z,5.70
2018-06-03T20:43:05.125Z,5.20
2018-06-03T20:45:09.358Z,6.40
2018-06-03T20:47:13.508Z,6.90
2018-06-03T20:49:17.568Z,5.90
2018-06-03T20:51:21.538Z,5.60
2018-06-03T20:53:25.585Z,5.23
2018-06-03T20:55:29.526Z,5.00
2018-06-03T20:57:33.540Z,6.10
2018-06-03T20:59:37.505Z,5.90
2018-06-03T21:01:41.779Z,5.90
2018-06-03T21:03:45.786Z,5.03
2018-06-03T21:05:50.099Z,5.13
2018-06-03T21:07:54.170Z,5.57
2018-06-03T21:09:58.133Z,5.63
2018-06-03T21:12:02.140Z,6.63
2018-06-03T21:14:06.282Z,5.57
2018-06-03T21:16:10.258Z,5.97
2018-06-03T21:18:14.265Z,5.73
2018-06-03T21:20:18.287Z,6.70
2018-06-03T21:22:22.259Z,6.53
2018-06-03T21:24:26.317Z,5.97
2018-06-03T21:26:30.305Z,6.47
2018-06-03T21:28:34.288Z,6.10
2018-06-03T21:30:38.257Z,6.97
2018-06-03T21:32:41.995Z,6.50
2018-06-03T21:34:45.874Z,6.90
2018-06-03T21:36:49.867Z,6.50
2018-06-03T21:38:53.860Z,7.80
2018-06-03T21:40:57.590Z,7.60
2018-06-03T21:43:01.447Z,6.70
2018-06-03T21:45:05.453Z,7.23
2018-06-03T21:47:09.406Z,7.27
2018-06-03T21:49:13.666Z,9.27
2018-06-03T21:51:18.022Z,8.40
2018-06-03T21:53:22.137Z,7.93
2018-06-03T21:55:26.202Z,8.17
2018-06-03T21:57:30.409Z,8.13
2018-06-03T21:59:34.369Z,7.67
2018-06-03T22:01:38.807Z,7.50
2018-06-03T22:03:42.799Z,7.80
2018-06-03T22:05:47.288Z,8.47
2018-06-03T22:07:51.312Z,7.63
2018-06-03T22:09:55.275Z,7.80
2018-06-03T22:11:59.275Z,7.93
2018-06-03T22:14:03.227Z,8.30
2018-06-03T22:16:07.227Z,8.80
2018-06-03T22:18:11.235Z,8.70
2018-06-03T22:20:15.395Z,7.77
2018-06-03T22:22:19.440Z,9.77
2018-06-03T22:24:23.390Z,8.70
2018-06-03T22:26:27.414Z,9.47
2018-06-03T22:28:31.638Z,9.13
2018-06-03T22:30:35.562Z,10.17
2018-06-03T22:32:39.310Z,9.83
2018-06-03T22:34:43.195Z,8.73
2018-06-03T22:36:47.154Z,8.80
2018-06-03T22:38:51.121Z,9.73
2018-06-03T22:40:55.113Z,10.77
2018-06-03T22:42:59.138Z,9.43
2018-06-03T22:45:03.527Z,10.23
2018-06-03T22:47:07.844Z,10.23
2018-06-03T22:49:12.150Z,11.10
2018-06-03T22:51:16.157Z,10.63
2018-06-03T22:53:20.154Z,10.97
2018-06-03T22:55:23.905Z,11.10
2018-06-03T22:57:48.746Z,10.80
2018-06-03T22:59:52.751Z,12.90
2018-06-03T23:01:56.719Z,11.70
2018-06-03T23:04:00.974Z,12.93
2018-06-03T23:06:05.606Z,11.00
2018-06-03T23:08:09.864Z,12.43
2018-06-03T23:10:14.110Z,11.80
2018-06-03T23:12:18.405Z,12.20
2018-06-03T23:14:22.694Z,7.30
2018-06-03T23:16:27.162Z,12.10
2018-06-03T23:18:31.414Z,10.77
2018-06-03T23:20:36.189Z,11.93
2018-06-03T23:22:40.746Z,12.60
2018-06-03T23:24:45.034Z,13.23
2018-06-03T23:26:49.663Z,13.60
2018-06-03T23:28:53.947Z,12.50
2018-06-03T23:30:58.246Z,13.07
2018-06-03T23:33:02.582Z,14.53
2018-06-03T23:35:06.887Z,13.67
2018-06-03T23:37:11.150Z,12.80
2018-06-03T23:39:15.417Z,13.60
2018-06-03T23:41:19.665Z,14.20
2018-06-03T23:43:23.944Z,13.27
2018-06-03T23:45:28.222Z,13.97
2018-06-03T23:47:32.458Z,15.27
2018-06-03T23:49:37.085Z,13.27
2018-06-03T23:51:41.418Z,13.90
2018-06-03T23:53:45.737Z,14.00
2018-06-03T23:55:49.998Z,14.20
2018-06-03T23:57:54.445Z,14.47
2018-06-03T23:59:58.658Z,14.40
